Akwesasne, New York
Current Conditions -  °F | °C
As of 10:53 PM on Monday 20 Oct 2014 (Local Time) from KMSS Reporting Station
Overcast Overcast  
Wind Chill: 41°   Ceiling: 6000
Heat Index: 44°   Visibility: 10mi
Dew Point: 43°   Wind: 6mph
Humidity: 96%   Direction: 70°ENE
Pressure: 29.92"   Gusts: NA
Location:  44.9835°N, 74.6107°W
Report Text: KMSS 210253Z AUTO 07005KT 10SM OVC060 07/06 A2992 RMK AO2 SLP134 60000 T00670061 58002
Loading
Personal Weather Stations






























Interactive Weather Map
Tropical Storm Tracking
New forecast layout! Learn more

10-Day Weather Forecast

Advertisements
Track Severe Weather on mobile